Update 03.02. : Die Wetterhütte (Außentemp. Fühler) wird jetzt mittels Solarpanel und Lüfter bei Sonnenschein aktiv belüftet.
Update 19.07. : Eine eigene Kamera für das Wetterbild installiert (HiKam A7 verwaltet vom Synology NAS)
Besuchen Sie den Menüpunkt "Almanach / History" hier gibt es viele interessante Statistiken aus den Daten meiner Wetterstation (seit 2011)

Rindlberg West Mehr Informationen Rindlberg West


Stuetzi - Rindlberg Ost Mehr Informationen Stuetzi - Rindlberg Ost


Regenradar Mehr Informationen rain snow radar


Sie finden meine Wetter-Infos auch auf:

Weather Underground

AWEKAS



METAR-Meldungen aus der Umgebung

   
LOWL - Linz
Aktualisierung: 19-02-2019 11:20
Klar  
Klar  
   Wind: NW 13 km/h
Wind: NW 13 km/h
Temperatur: 7°C
Gefühlt: 4°C
Taupunkt: 0°C
Luftfeuchte: 61%
Luftdruck: 1022 hPa
Sichtbarkeit: Mehr als 10 km
Bewölkung: Klar
LOWL 191020Z 31007KT CAVOK 07/M00 Q1022 NOSIG
LOWW - Vienna
Aktualisierung: 19-02-2019 11:20
Klar  
Klar  
   Wind: variiert 1.9 km/h
Wind: variiert 1.9 km/h
Temperatur: 8°C
Taupunkt: 1°C
Luftfeuchte: 62%
Luftdruck: 1020 hPa
Sichtbarkeit: Mehr als 10 km
Bewölkung: Klar
LOWW 191020Z VRB01KT CAVOK 08/01 Q1020 BECMG 32010KT
 

Script entwickelt von  Saratoga-weather.org Angepasst für das Template von  Weerstation Leuven